KLBL/LBL METAR and TAF weather

Enter ICAO airport designator
Station Type Date Time Source
KLBL METAR 2022/10/01 08:56 UTC NOAA

KLBL 010856Z AUTO 16005KT 10SM CLR 14/07 A3004 RMK AO2 SLP140 T01390067 53003


Station Type Date Time Source
KLBL Decoded METAR 2022/10/01 08:56 UTC NOAA

Liberal, Liberal Municipal Airport, KS, United States (KLBL) 37-03N 100-58W
Oct 01, 2022 - 04:56 AM EDT / 2022.10.01 0856 UTC
Wind: from the SSE (160 degrees) at 6 MPH (5 KT):0
Visibility: 10 mile(s):0
Sky conditions: clear
Temperature: 57.0 F (13.9 C)
Dew Point: 44.1 F (6.7 C)
Relative Humidity: 61%
Pressure (altimeter): 30.04 in. Hg (1017 hPa)
Pressure tendency: 0.01 inches (0.3 hPa) higher than three hours ago
ob: KLBL 010856Z AUTO 16005KT 10SM CLR 14/07 A3004 RMK AO2 SLP140 T01390067 53003
cycle: 9

Station Type Date Time Source
KLBL TAF 2022/10/01 06:21 UTC NOAA

TAF KLBL 010520Z 0106/0206 17012KT P6SM SCT230
FM012100 17014KT P6SM FEW250

Example: see airport list